Time;durP1;ratioP1;P1;durP2;ratioP2;P2;SDS_P1;SDS_P2;PMS_P1;PMS_P2;Temp;Humidity;BMP_temperature;BMP_pressure;BME280_temperature;BME280_humidity;BME280_pressure;Samples;Min_cycle;Max_cycle;Signal;HPM_P1;HPM_P2
2022/04/02 00:01:53;;;;;;;;;;;1.00;99.90;;;;;;5031071;28;19925;-82
2022/04/02 00:04:21;;;;;;;;;;;1.00;99.90;;;;;;5029195;28;19930;-82
2022/04/02 00:06:48;;;;;;;;;;;1.00;99.90;;;;;;5028387;28;19996;-81
2022/04/02 00:09:14;;;;;;;;;;;1.00;99.90;;;;;;5039020;28;19925;-81
2022/04/02 00:11:41;;;;;;;;;;;1.00;99.90;;;;;;5030091;28;19932;-81
2022/04/02 00:14:08;;;;;;;;;;;0.90;99.90;;;;;;5017084;28;19940;-81
2022/04/02 00:16:37;;;;;;;;;;;0.90;99.90;;;;;;5040111;28;19925;-80
2022/04/02 00:19:04;;;;;;;;;;;1.00;99.90;;;;;;5044104;28;19937;-81
2022/04/02 00:21:32;;;;;;;;;;;1.00;99.90;;;;;;5042103;28;19940;-81
2022/04/02 00:23:59;;;;;;;;;;;1.00;99.90;;;;;;5042178;28;19928;-81
2022/04/02 00:26:25;;;;;;;;;;;1.00;99.90;;;;;;5031749;28;19926;-81
2022/04/02 00:28:52;;;;;;;;;;;1.00;99.90;;;;;;5029155;28;19933;-80
2022/04/02 00:31:21;;;;;;;;;;;1.00;99.90;;;;;;5026209;28;19929;-81
2022/04/02 00:33:50;;;;;;;;;;;3.20;99.90;;;;;;5029138;28;20019;-80
2022/04/02 00:36:19;;;;;;;;;;;1.10;99.90;;;;;;5023693;28;19936;-82
2022/04/02 00:38:47;;;;;;;;;;;1.10;99.90;;;;;;5022128;28;19932;-81
2022/04/02 00:41:15;;;;;;;;;;;1.00;99.90;;;;;;5027661;28;19998;-81
2022/04/02 00:43:54;;;;;;;;;;;1.00;99.90;;;;;;5030253;28;19925;-81
2022/04/02 00:46:21;;;;;;;;;;;-0.20;99.90;;;;;;5022094;28;19968;-81
2022/04/02 00:48:50;;;;;;;;;;;0.90;99.90;;;;;;5027672;28;19929;-82
2022/04/02 00:51:18;;;;;;;;;;;1.00;99.90;;;;;;5034263;28;19929;-82
2022/04/02 00:53:48;;;;;;;;;;;1.00;99.90;;;;;;5052531;28;20378;-80
2022/04/02 00:56:16;;;;;;;;;;;1.00;99.90;;;;;;5049750;28;20401;-81
2022/04/02 00:58:43;;;;;;;;;;;1.10;99.90;;;;;;5033167;28;19940;-82
2022/04/02 01:01:14;;;;;;;;;;;1.10;99.90;;;;;;5035979;28;19956;-82
2022/04/02 01:03:43;;;;;;;;;;;1.20;99.90;;;;;;5048127;28;19929;-82
2022/04/02 01:06:12;;;;;;;;;;;1.20;99.90;;;;;;5036257;28;19929;-82
2022/04/02 01:08:39;;;;;;;;;;;1.20;99.90;;;;;;5038688;28;19963;-82
2022/04/02 01:11:08;;;;;;;;;;;1.20;99.90;;;;;;5056122;28;20122;-82
2022/04/02 01:13:35;;;;;;;;;;;1.20;99.90;;;;;;5044883;28;19933;-82
2022/04/02 01:16:06;;;;;;;;;;;1.20;99.90;;;;;;5042887;28;20013;-82
2022/04/02 01:18:35;;;;;;;;;;;1.20;99.90;;;;;;5037734;28;20378;-79
2022/04/02 01:21:02;;;;;;;;;;;1.30;99.90;;;;;;5029014;28;19997;-82
2022/04/02 01:23:37;;;;;;;;;;;1.30;99.90;;;;;;5050924;28;19980;-81
2022/04/02 01:26:11;;;;;;;;;;;1.30;99.90;;;;;;5056961;28;19944;-81
2022/04/02 01:28:53;;;;;;;;;;;1.30;99.90;;;;;;5039788;28;19936;-80
2022/04/02 01:31:22;;;;;;;;;;;1.30;99.90;;;;;;5033294;28;19929;-81
2022/04/02 01:33:49;;;;;;;;;;;1.30;99.90;;;;;;5054833;28;20300;-80
2022/04/02 01:36:16;;;;;;;;;;;1.30;99.90;;;;;;5047586;28;19941;-81
2022/04/02 01:39:04;;;;;;;;;;;1.30;99.90;;;;;;5042268;28;19929;-80
2022/04/02 01:41:32;;;;;;;;;;;1.30;99.90;;;;;;5035727;28;20032;-82
2022/04/02 01:43:59;;;;;;;;;;;1.30;99.90;;;;;;5042834;28;19975;-81
2022/04/02 01:46:26;;;;;;;;;;;1.30;99.90;;;;;;5047982;28;19983;-81
2022/04/02 01:48:54;;;;;;;;;;;1.30;99.90;;;;;;5041267;28;19929;-81
2022/04/02 01:51:21;;;;;;;;;;;1.30;99.90;;;;;;5042429;28;19930;-81
2022/04/02 01:53:48;;;;;;;;;;;1.40;99.90;;;;;;5023728;28;19932;-81
2022/04/02 01:56:16;;;;;;;;;;;1.40;99.90;;;;;;5022972;28;19925;-81
2022/04/02 01:58:48;;;;;;;;;;;1.40;99.90;;;;;;5057320;28;20316;-80
2022/04/02 02:01:20;;;;;;;;;;;1.40;99.90;;;;;;5039554;28;19960;-81
2022/04/02 02:03:47;;;;;;;;;;;1.50;99.90;;;;;;5031456;28;19925;-81
2022/04/02 02:06:13;;;;;;;;;;;1.50;99.90;;;;;;5022499;28;20480;-80
2022/04/02 02:08:45;;;;;;;;;;;1.50;99.90;;;;;;5040081;28;20480;-80
2022/04/02 02:11:31;;;;;;;;;;;1.50;99.90;;;;;;5043571;28;19936;-80
2022/04/02 02:14:36;;;;;;;;;;;1.40;99.90;;;;;;4986735;28;19952;-81
2022/04/02 02:17:19;;;;;;;;;;;1.50;99.90;;;;;;4992807;28;19926;-80
2022/04/02 02:19:49;;;;;;;;;;;1.50;99.90;;;;;;5019475;28;19934;-82
2022/04/02 02:22:16;;;;;;;;;;;1.40;99.90;;;;;;5041348;28;19948;-81
2022/04/02 02:24:43;;;;;;;;;;;1.40;99.90;;;;;;5021406;28;19925;-81
2022/04/02 02:27:11;;;;;;;;;;;1.50;99.90;;;;;;5022626;28;19928;-81
2022/04/02 02:29:38;;;;;;;;;;;1.40;99.90;;;;;;5029393;28;19932;-81
2022/04/02 02:32:26;;;;;;;;;;;1.40;99.90;;;;;;5025382;28;19925;-81
2022/04/02 02:37:41;;;;;;;;;;;1.40;99.90;;;;;;5040786;28;19948;-81
2022/04/02 02:40:12;;;;;;;;;;;1.40;99.90;;;;;;5043295;28;19960;-81
2022/04/02 02:42:41;;;;;;;;;;;1.40;99.90;;;;;;5055373;28;19986;-81
2022/04/02 02:45:31;;;;;;;;;;;1.40;99.90;;;;;;5032847;28;19933;-82
2022/04/02 02:48:00;;;;;;;;;;;1.40;99.90;;;;;;5030017;28;20057;-81
2022/04/02 02:50:39;;;;;;;;;;;1.40;99.90;;;;;;5031321;28;20380;-81
2022/04/02 02:53:06;;;;;;;;;;;1.40;99.90;;;;;;5024674;28;19925;-81
2022/04/02 02:55:33;;;;;;;;;;;1.40;99.90;;;;;;5031990;28;19929;-81
2022/04/02 02:58:07;;;;;;;;;;;0.60;99.90;;;;;;5018171;28;19933;-81
2022/04/02 03:00:35;;;;;;;;;;;1.50;99.90;;;;;;5020749;28;20044;-81
2022/04/02 03:03:03;;;;;;;;;;;1.50;99.90;;;;;;5053373;28;19959;-81
2022/04/02 03:05:33;;;;;;;;;;;1.50;99.90;;;;;;5038868;28;19987;-81
2022/04/02 03:08:05;;;;;;;;;;;1.50;99.90;;;;;;5037549;28;19925;-82
2022/04/02 03:10:56;;;;;;;;;;;1.40;99.90;;;;;;5036458;28;19987;-82
2022/04/02 03:13:28;;;;;;;;;;;1.40;99.90;;;;;;5042357;28;19929;-82
2022/04/02 03:16:04;;;;;;;;;;;1.40;99.90;;;;;;5060009;28;19925;-82
2022/04/02 03:18:32;;;;;;;;;;;1.50;99.90;;;;;;5062230;28;20248;-83
2022/04/02 03:21:01;;;;;;;;;;;1.40;99.90;;;;;;5062654;28;19932;-83
2022/04/02 03:23:29;;;;;;;;;;;1.50;99.90;;;;;;5040754;28;20269;-82
2022/04/02 03:25:56;;;;;;;;;;;1.40;99.90;;;;;;5030865;28;20370;-82
2022/04/02 03:28:23;;;;;;;;;;;1.40;99.90;;;;;;5030750;28;19925;-82
2022/04/02 03:30:51;;;;;;;;;;;1.40;99.90;;;;;;5043388;28;19933;-82
2022/04/02 03:33:20;;;;;;;;;;;1.50;99.90;;;;;;5039646;28;20005;-82
2022/04/02 03:35:47;;;;;;;;;;;1.50;99.90;;;;;;5047992;28;19925;-82
2022/04/02 03:38:14;;;;;;;;;;;1.50;99.90;;;;;;5026334;28;19968;-82
2022/04/02 03:40:43;;;;;;;;;;;1.50;99.90;;;;;;5020004;28;19940;-81
2022/04/02 03:43:11;;;;;;;;;;;1.50;99.90;;;;;;5019635;28;19933;-82
2022/04/02 03:45:38;;;;;;;;;;;1.50;99.90;;;;;;5024346;28;19976;-82
2022/04/02 03:48:09;;;;;;;;;;;1.60;99.90;;;;;;5021839;28;20282;-82
2022/04/02 03:50:40;;;;;;;;;;;1.50;99.90;;;;;;5023123;28;19937;-82
2022/04/02 03:53:13;;;;;;;;;;;1.50;99.90;;;;;;5021297;28;20040;-82
2022/04/02 03:55:50;;;;;;;;;;;1.50;99.90;;;;;;5039649;28;19913;-82
2022/04/02 03:58:24;;;;;;;;;;;1.50;99.90;;;;;;5040489;28;19925;-83
2022/04/02 04:00:53;;;;;;;;;;;1.50;99.90;;;;;;5031968;28;20048;-83
2022/04/02 04:03:21;;;;;;;;;;;1.50;99.90;;;;;;5035789;28;19952;-81
2022/04/02 04:05:51;;;;;;;;;;;1.50;99.90;;;;;;5041631;28;19955;-82
2022/04/02 04:08:19;;;;;;;;;;;1.50;99.90;;;;;;5039906;28;19926;-82
2022/04/02 04:10:46;;;;;;;;;;;1.60;99.90;;;;;;5039722;28;19930;-82
2022/04/02 04:13:16;;;;;;;;;;;1.50;99.90;;;;;;5041619;28;19992;-82
2022/04/02 04:15:43;;;;;;;;;;;1.50;99.90;;;;;;5040281;28;19996;-81
2022/04/02 04:18:11;;;;;;;;;;;1.60;99.90;;;;;;5043574;28;19948;-81
2022/04/02 04:20:42;;;;;;;;;;;1.60;99.90;;;;;;5057875;28;19929;-83
2022/04/02 04:23:13;;;;;;;;;;;1.60;99.90;;;;;;5070922;28;20019;-83
2022/04/02 04:25:41;;;;;;;;;;;1.60;99.90;;;;;;5054514;28;19923;-83
2022/04/02 04:28:09;;;;;;;;;;;1.60;99.90;;;;;;5055468;28;19993;-83
2022/04/02 04:30:36;;;;;;;;;;;1.60;99.90;;;;;;5064057;28;20011;-84
2022/04/02 04:33:03;;;;;;;;;;;1.60;99.90;;;;;;5049530;28;19984;-81
2022/04/02 04:35:30;;;;;;;;;;;1.60;99.90;;;;;;5051401;28;19914;-82
2022/04/02 04:37:58;;;;;;;;;;;1.70;99.90;;;;;;5050412;28;19988;-80
2022/04/02 04:40:28;;;;;;;;;;;1.70;99.90;;;;;;5045759;28;19913;-82
2022/04/02 04:42:58;;;;;;;;;;;1.70;99.90;;;;;;5047430;28;20016;-82
2022/04/02 04:45:45;;;;;;;;;;;1.70;99.90;;;;;;5047430;28;19913;-83
2022/04/02 04:48:13;;;;;;;;;;;1.70;99.90;;;;;;5061681;28;19922;-83
2022/04/02 04:50:52;;;;;;;;;;;1.70;99.90;;;;;;5052588;28;19937;-83
2022/04/02 04:53:21;;;;;;;;;;;1.70;99.90;;;;;;5046014;28;19925;-81
2022/04/02 04:55:49;;;;;;;;;;;1.70;99.90;;;;;;5036199;28;19924;-82
2022/04/02 04:58:19;;;;;;;;;;;;;;;;;;5036630;28;19948;-82
2022/04/02 05:00:47;;;;;;;;;;;1.80;99.90;;;;;;5053353;28;19924;-82
2022/04/02 05:03:14;;;;;;;;;;;1.80;99.90;;;;;;5076005;28;19913;-82
2022/04/02 05:05:46;;;;;;;;;;;1.80;99.90;;;;;;5050140;28;19919;-81
2022/04/02 05:08:17;;;;;;;;;;;1.80;99.90;;;;;;5069367;28;20005;-79
2022/04/02 05:10:47;;;;;;;;;;;1.80;99.90;;;;;;5056385;28;19940;-81
2022/04/02 05:13:20;;;;;;;;;;;1.90;99.90;;;;;;5050387;28;19921;-81
2022/04/02 05:15:51;;;;;;;;;;;1.90;99.90;;;;;;5061222;28;19964;-81
2022/04/02 05:18:21;;;;;;;;;;;1.90;99.90;;;;;;5043476;28;19971;-82
2022/04/02 05:20:48;;;;;;;;;;;1.90;99.90;;;;;;5038194;28;19929;-82
2022/04/02 05:23:16;;;;;;;;;;;1.90;99.90;;;;;;5045294;28;19913;-82
2022/04/02 05:25:44;;;;;;;;;;;2.00;99.90;;;;;;5056050;28;19913;-82
2022/04/02 05:28:14;;;;;;;;;;;2.00;99.90;;;;;;5041316;28;19944;-81
2022/04/02 05:30:41;;;;;;;;;;;2.00;99.90;;;;;;5041616;28;19963;-82
2022/04/02 05:33:08;;;;;;;;;;;2.00;99.90;;;;;;5050160;28;19913;-82
2022/04/02 05:35:35;;;;;;;;;;;3.70;99.90;;;;;;5053808;28;19913;-82
2022/04/02 05:38:02;;;;;;;;;;;2.00;99.90;;;;;;5037672;28;19913;-81
2022/04/02 05:40:29;;;;;;;;;;;2.10;99.90;;;;;;5055226;28;19933;-81
2022/04/02 05:42:55;;;;;;;;;;;2.10;99.90;;;;;;5051614;28;19924;-82
2022/04/02 05:45:24;;;;;;;;;;;2.10;99.90;;;;;;5078497;28;19913;-83
2022/04/02 05:47:53;;;;;;;;;;;2.10;99.90;;;;;;5055325;28;20036;-80
2022/04/02 05:50:21;;;;;;;;;;;2.10;99.90;;;;;;5048892;28;19939;-83
2022/04/02 05:52:49;;;;;;;;;;;2.20;99.90;;;;;;5047713;28;19929;-82
2022/04/02 05:55:17;;;;;;;;;;;2.30;99.90;;;;;;5055985;28;19913;-82
2022/04/02 05:57:44;;;;;;;;;;;2.30;99.90;;;;;;5056446;28;19913;-82
2022/04/02 06:00:12;;;;;;;;;;;2.30;99.90;;;;;;5057459;28;19944;-81
2022/04/02 06:02:43;;;;;;;;;;;2.30;99.90;;;;;;5049996;28;19913;-80
2022/04/02 06:05:11;;;;;;;;;;;2.40;99.90;;;;;;5046531;28;19936;-82
2022/04/02 06:07:38;;;;;;;;;;;2.50;99.90;;;;;;5047161;28;19936;-82
2022/04/02 06:10:06;;;;;;;;;;;2.50;99.90;;;;;;5059315;28;20391;-81
2022/04/02 06:12:33;;;;;;;;;;;2.50;99.90;;;;;;5036903;28;20023;-81
2022/04/02 06:15:00;;;;;;;;;;;;;;;;;;5035318;28;19934;-81
2022/04/02 06:17:27;;;;;;;;;;;2.50;99.90;;;;;;5047954;28;19929;-82
2022/04/02 06:19:56;;;;;;;;;;;2.50;99.90;;;;;;5051522;28;19928;-85
2022/04/02 06:22:22;;;;;;;;;;;2.50;99.90;;;;;;5036960;28;20001;-82
2022/04/02 06:24:49;;;;;;;;;;;2.60;99.90;;;;;;5046198;28;20012;-84
2022/04/02 06:27:16;;;;;;;;;;;2.70;99.90;;;;;;5027106;28;20308;-81
2022/04/02 06:29:43;;;;;;;;;;;2.80;99.90;;;;;;5036609;28;20052;-83
2022/04/02 06:32:10;;;;;;;;;;;2.80;99.90;;;;;;5049788;28;19939;-83
2022/04/02 06:34:36;;;;;;;;;;;2.80;99.90;;;;;;5036584;28;20274;-84
2022/04/02 06:37:05;;;;;;;;;;;2.80;99.90;;;;;;5037203;28;19944;-83
2022/04/02 06:39:32;;;;;;;;;;;2.90;99.90;;;;;;5034604;28;19929;-83
2022/04/02 06:41:59;;;;;;;;;;;2.80;99.90;;;;;;5044393;28;19975;-84
2022/04/02 06:44:36;;;;;;;;;;;3.10;99.90;;;;;;5040267;28;19964;-84
2022/04/02 06:47:03;;;;;;;;;;;3.10;99.90;;;;;;5032164;28;19933;-83
2022/04/02 06:49:40;;;;;;;;;;;3.10;99.90;;;;;;5039446;28;19926;-86
2022/04/02 06:52:13;;;;;;;;;;;3.20;99.90;;;;;;5039129;28;19953;-87
2022/04/02 06:54:44;;;;;;;;;;;3.30;99.90;;;;;;5038224;28;19940;-86
2022/04/02 06:57:17;;;;;;;;;;;3.40;99.90;;;;;;5038643;28;20096;-86
2022/04/02 06:59:43;;;;;;;;;;;3.50;99.90;;;;;;5039360;28;19929;-85
2022/04/02 07:02:11;;;;;;;;;;;3.60;99.90;;;;;;5030669;28;20400;-86
2022/04/02 07:04:38;;;;;;;;;;;3.70;99.90;;;;;;5025604;28;19930;-87
2022/04/02 07:07:08;;;;;;;;;;;3.70;99.90;;;;;;5033988;28;19925;-84
2022/04/02 07:09:36;;;;;;;;;;;3.90;99.90;;;;;;5049383;28;19929;-86
2022/04/02 07:12:04;;;;;;;;;;;4.00;99.90;;;;;;5028767;28;19968;-86
2022/04/02 07:14:31;;;;;;;;;;;4.20;99.90;;;;;;5027980;28;20187;-85
2022/04/02 07:16:59;;;;;;;;;;;4.20;99.90;;;;;;5038369;28;19954;-85
2022/04/02 07:19:26;;;;;;;;;;;4.30;99.90;;;;;;5034973;28;19929;-86
2022/04/02 07:21:54;;;;;;;;;;;4.60;99.90;;;;;;5025250;28;19949;-86
2022/04/02 07:24:21;;;;;;;;;;;4.60;99.90;;;;;;5032521;28;19967;-86
2022/04/02 07:26:52;;;;;;;;;;;4.80;99.90;;;;;;5028249;28;19929;-86
2022/04/02 07:29:19;;;;;;;;;;;4.80;99.90;;;;;;5032420;28;19932;-87
2022/04/02 07:31:46;;;;;;;;;;;4.70;99.90;;;;;;5037363;28;19925;-83
2022/04/02 07:34:15;;;;;;;;;;;4.80;99.90;;;;;;5033578;28;19997;-85
2022/04/02 07:36:49;;;;;;;;;;;4.80;99.90;;;;;;5034495;28;19983;-84
2022/04/02 07:39:23;;;;;;;;;;;4.80;99.90;;;;;;5013911;28;19929;-85
2022/04/02 07:42:00;;;;;;;;;;;4.80;99.90;;;;;;5037376;28;19925;-85
2022/04/02 07:44:31;;;;;;;;;;;4.90;99.90;;;;;;5032103;28;19935;-84
2022/04/02 07:46:58;;;;;;;;;;;5.00;99.90;;;;;;5033884;28;19925;-85
2022/04/02 07:49:27;;;;;;;;;;;5.00;99.90;;;;;;5032450;28;20401;-85
2022/04/02 07:51:55;;;;;;;;;;;4.90;99.90;;;;;;5030134;28;19925;-86
2022/04/02 07:54:23;;;;;;;;;;;5.10;99.90;;;;;;5025015;28;19929;-85
2022/04/02 07:56:50;;;;;;;;;;;5.40;99.90;;;;;;5027944;28;19936;-86
2022/04/02 07:59:23;;;;;;;;;;;5.40;99.90;;;;;;5022691;28;19925;-85
2022/04/02 08:01:50;;;;;;;;;;;5.50;99.90;;;;;;5023509;28;20350;-85
2022/04/02 08:04:17;;;;;;;;;;;5.50;99.90;;;;;;5031797;28;19929;-86
2022/04/02 08:06:44;;;;;;;;;;;5.50;99.90;;;;;;5030022;28;19929;-85
2022/04/02 08:09:14;;;;;;;;;;;5.50;99.90;;;;;;5046763;28;19929;-84
2022/04/02 08:11:40;;;;;;;;;;;5.70;99.90;;;;;;5046650;28;19935;-83
2022/04/02 08:14:09;;;;;;;;;;;5.80;99.90;;;;;;5027127;28;19929;-83
2022/04/02 08:16:42;;;;;;;;;;;5.80;99.90;;;;;;5025190;28;19936;-87
2022/04/02 08:19:10;;;;;;;;;;;5.30;99.90;;;;;;5044319;28;20000;-87
2022/04/02 08:21:37;;;;;;;;;;;5.30;99.90;;;;;;5038274;28;20016;-84
2022/04/02 08:24:05;;;;;;;;;;;5.40;99.90;;;;;;5060909;28;19948;-86
2022/04/02 08:26:43;;;;;;;;;;;5.60;99.90;;;;;;5042169;28;20338;-84
2022/04/02 08:29:21;;;;;;;;;;;5.80;99.90;;;;;;5034272;28;19948;-84
2022/04/02 08:32:03;;;;;;;;;;;5.90;99.90;;;;;;5029631;28;20055;-84
2022/04/02 08:34:47;;;;;;;;;;;6.00;99.90;;;;;;5041391;28;19932;-85
2022/04/02 08:37:15;;;;;;;;;;;6.20;99.90;;;;;;5034050;28;19934;-86
2022/04/02 08:39:46;;;;;;;;;;;6.40;99.90;;;;;;5040149;28;19929;-84
2022/04/02 08:42:28;;;;;;;;;;;6.60;99.90;;;;;;5035376;28;20297;-84
2022/04/02 08:45:09;;;;;;;;;;;6.70;99.90;;;;;;5043051;28;19929;-83
2022/04/02 08:48:00;;;;;;;;;;;6.70;99.90;;;;;;5044367;28;19928;-84
2022/04/02 08:50:30;;;;;;;;;;;6.60;99.90;;;;;;5023469;28;19948;-85
2022/04/02 08:52:57;;;;;;;;;;;6.60;99.90;;;;;;5040430;28;20342;-85
2022/04/02 08:55:32;;;;;;;;;;;6.70;99.90;;;;;;5031035;28;19929;-84
2022/04/02 08:58:03;;;;;;;;;;;6.80;99.90;;;;;;5033473;28;20393;-84
2022/04/02 09:00:35;;;;;;;;;;;6.80;99.90;;;;;;5039138;28;19929;-84
2022/04/02 09:03:27;;;;;;;;;;;6.80;99.90;;;;;;5033407;28;20239;-85
2022/04/02 09:06:09;;;;;;;;;;;6.70;99.90;;;;;;5033718;28;19977;-85
2022/04/02 09:08:45;;;;;;;;;;;6.80;99.90;;;;;;5032401;28;19929;-84
2022/04/02 09:11:21;;;;;;;;;;;6.90;99.90;;;;;;5046284;28;20254;-84
2022/04/02 09:14:05;;;;;;;;;;;7.30;99.90;;;;;;5032864;28;20607;-85
2022/04/02 09:16:36;;;;;;;;;;;7.50;99.90;;;;;;5061908;28;20016;-85
2022/04/02 09:19:12;;;;;;;;;;;7.60;99.90;;;;;;5028807;28;19933;-85
2022/04/02 09:21:50;;;;;;;;;;;7.70;99.90;;;;;;5040057;28;19940;-85
2022/04/02 09:24:24;;;;;;;;;;;7.80;99.90;;;;;;5040441;28;19996;-86
2022/04/02 09:27:10;;;;;;;;;;;7.70;99.90;;;;;;5047033;28;19928;-85
2022/04/02 09:29:43;;;;;;;;;;;7.50;99.90;;;;;;5034961;28;20442;-84
2022/04/02 09:32:24;;;;;;;;;;;7.40;99.90;;;;;;5027281;28;19929;-85
2022/04/02 09:35:07;;;;;;;;;;;7.50;99.90;;;;;;5039755;28;19929;-84
2022/04/02 09:37:44;;;;;;;;;;;7.60;99.90;;;;;;5036919;28;19925;-85
2022/04/02 09:40:11;;;;;;;;;;;7.50;99.90;;;;;;5029947;28;20385;-85
2022/04/02 09:42:41;;;;;;;;;;;7.50;99.90;;;;;;5026261;28;20359;-85
2022/04/02 09:45:09;;;;;;;;;;;7.50;99.90;;;;;;5033292;28;19959;-85
2022/04/02 09:47:54;;;;;;;;;;;7.60;99.90;;;;;;5030343;28;20206;-85
2022/04/02 09:50:22;;;;;;;;;;;7.50;99.90;;;;;;5031610;28;20016;-86
2022/04/02 09:52:53;;;;;;;;;;;7.50;99.90;;;;;;5025090;28;19975;-85
2022/04/02 09:55:22;;;;;;;;;;;7.70;99.90;;;;;;5037767;28;20526;-86
2022/04/02 09:57:57;;;;;;;;;;;7.80;99.90;;;;;;5028171;28;19996;-84
2022/04/02 10:00:26;;;;;;;;;;;7.60;99.90;;;;;;5024561;28;19952;-86
2022/04/02 10:03:00;;;;;;;;;;;7.60;99.90;;;;;;5031639;28;19955;-85
2022/04/02 10:05:33;;;;;;;;;;;7.30;99.90;;;;;;5028739;28;19932;-84
2022/04/02 10:08:04;;;;;;;;;;;7.00;99.90;;;;;;5041090;28;19967;-84
2022/04/02 10:10:31;;;;;;;;;;;6.70;99.90;;;;;;5041777;28;20615;-84
2022/04/02 10:12:58;;;;;;;;;;;6.70;99.90;;;;;;5051291;28;19929;-84
2022/04/02 10:15:25;;;;;;;;;;;6.70;99.90;;;;;;5021134;28;19948;-84
2022/04/02 10:17:52;;;;;;;;;;;6.70;99.90;;;;;;5020514;28;19929;-85
2022/04/02 10:20:20;;;;;;;;;;;6.40;99.90;;;;;;5042576;28;19925;-84
2022/04/02 10:22:47;;;;;;;;;;;6.20;99.90;;;;;;5026654;28;19951;-84
2022/04/02 10:25:15;;;;;;;;;;;6.10;99.90;;;;;;5028685;28;20443;-85
2022/04/02 10:27:43;;;;;;;;;;;6.20;99.90;;;;;;5032972;28;19925;-86
2022/04/02 10:30:11;;;;;;;;;;;6.20;99.90;;;;;;5032241;28;19929;-85
2022/04/02 10:33:26;;;;;;;;;;;6.40;99.90;;;;;;5025706;28;19955;-85
2022/04/02 10:35:47;;;;;;;;;;;6.50;99.90;;;;;;5047976;28;20283;-84
2022/04/02 10:38:24;;;;;;;;;;;7.00;99.90;;;;;;5030049;28;20386;-84
2022/04/02 10:40:53;;;;;;;;;;;6.20;99.90;;;;;;5036176;28;20011;-84
2022/04/02 10:43:30;;;;;;;;;;;5.60;99.90;;;;;;5031747;28;19924;-86
2022/04/02 10:45:57;;;;;;;;;;;5.80;99.90;;;;;;5041549;28;19928;-86
2022/04/02 10:48:28;;;;;;;;;;;5.30;99.90;;;;;;5027524;28;19936;-85
2022/04/02 10:50:55;;;;;;;;;;;4.70;99.90;;;;;;5023566;28;19929;-86
2022/04/02 10:53:22;;;;;;;;;;;4.90;99.90;;;;;;5031265;28;20624;-85
2022/04/02 10:55:58;;;;;;;;;;;5.10;99.90;;;;;;5020990;28;20385;-85
2022/04/02 10:58:26;;;;;;;;;;;5.40;99.90;;;;;;5018348;28;20015;-86
2022/04/02 11:00:53;;;;;;;;;;;;;;;;;;5024459;28;19929;-87
2022/04/02 11:03:25;;;;;;;;;;;6.10;99.90;;;;;;5027467;28;19953;-86
2022/04/02 11:05:51;;;;;;;;;;;6.40;99.90;;;;;;5040319;28;19968;-85
2022/04/02 11:08:22;;;;;;;;;;;6.60;99.90;;;;;;5036520;28;19968;-85
2022/04/02 11:10:49;;;;;;;;;;;6.80;99.90;;;;;;5037418;28;19946;-85
2022/04/02 11:13:28;;;;;;;;;;;6.90;99.90;;;;;;5038491;28;19924;-85
2022/04/02 11:15:56;;;;;;;;;;;7.20;99.90;;;;;;5031913;28;19933;-85
2022/04/02 11:18:24;;;;;;;;;;;6.90;99.90;;;;;;5045002;28;19979;-86
2022/04/02 11:20:53;;;;;;;;;;;6.90;99.90;;;;;;5032302;28;19956;-87
2022/04/02 11:23:23;;;;;;;;;;;7.00;99.90;;;;;;5037724;28;19960;-87
2022/04/02 11:25:55;;;;;;;;;;;7.60;99.90;;;;;;5039252;28;19929;-88
2022/04/02 11:28:23;;;;;;;;;;;7.70;99.90;;;;;;5034595;28;19971;-87
2022/04/02 11:30:52;;;;;;;;;;;8.30;99.90;;;;;;5041658;28;20017;-88
2022/04/02 11:33:23;;;;;;;;;;;8.30;99.90;;;;;;5027230;28;20330;-88
2022/04/02 11:35:51;;;;;;;;;;;8.30;99.90;;;;;;5028182;28;19932;-86
2022/04/02 11:38:28;;;;;;;;;;;8.00;99.90;;;;;;5019066;28;19929;-87
2022/04/02 11:40:56;;;;;;;;;;;7.40;99.90;;;;;;5031669;28;19929;-88
2022/04/02 11:43:31;;;;;;;;;;;7.30;99.90;;;;;;5037239;28;19929;-87
2022/04/02 11:46:02;;;;;;;;;;;7.40;99.90;;;;;;5030372;28;20261;-87
2022/04/02 11:48:31;;;;;;;;;;;7.30;99.90;;;;;;5037507;28;19929;-88
2022/04/02 11:51:10;;;;;;;;;;;7.50;99.90;;;;;;5033041;28;19929;-87
2022/04/02 11:53:37;;;;;;;;;;;7.50;99.90;;;;;;5033224;28;19928;-86
2022/04/02 11:56:22;;;;;;;;;;;7.30;99.90;;;;;;5037770;28;21067;-87
2022/04/02 11:58:49;;;;;;;;;;;6.80;99.90;;;;;;5031024;28;19929;-88
2022/04/02 12:01:19;;;;;;;;;;;6.70;99.90;;;;;;5030193;28;19944;-87
2022/04/02 12:04:05;;;;;;;;;;;6.60;99.90;;;;;;5033491;28;19931;-88
2022/04/02 12:06:34;;;;;;;;;;;6.60;99.90;;;;;;5041388;28;19933;-84
2022/04/02 12:09:09;;;;;;;;;;;6.70;99.90;;;;;;4999745;28;19925;-84
2022/04/02 12:11:35;;;;;;;;;;;6.70;99.90;;;;;;5029574;28;19933;-85
2022/04/02 12:14:05;;;;;;;;;;;6.20;99.90;;;;;;5030892;28;19932;-84
2022/04/02 12:16:38;;;;;;;;;;;6.10;99.90;;;;;;5014202;28;19936;-85
2022/04/02 12:19:05;;;;;;;;;;;5.80;99.90;;;;;;5029158;28;19956;-84
2022/04/02 12:21:33;;;;;;;;;;;5.20;99.90;;;;;;5038849;28;19999;-84
2022/04/02 12:24:01;;;;;;;;;;;4.70;99.90;;;;;;5039209;28;20862;-85
2022/04/02 12:26:28;;;;;;;;;;;4.40;99.90;;;;;;5048612;28;19925;-86
2022/04/02 12:28:56;;;;;;;;;;;4.40;99.90;;;;;;5043644;28;20059;-87
2022/04/02 12:31:23;;;;;;;;;;;5.00;99.90;;;;;;5044186;28;19925;-83
2022/04/02 12:33:52;;;;;;;;;;;4.60;99.90;;;;;;5045343;28;19937;-84
2022/04/02 12:36:29;;;;;;;;;;;4.70;99.90;;;;;;5030656;28;19944;-84
2022/04/02 12:39:00;;;;;;;;;;;4.80;99.90;;;;;;5033984;28;20039;-84
2022/04/02 12:41:29;;;;;;;;;;;4.90;99.90;;;;;;5023273;28;19933;-84
2022/04/02 12:43:59;;;;;;;;;;;5.20;99.90;;;;;;5032102;28;19944;-83
2022/04/02 12:46:26;;;;;;;;;;;5.40;99.90;;;;;;5029252;28;19952;-84
2022/04/02 12:48:56;;;;;;;;;;;5.70;99.90;;;;;;5046174;28;19933;-84
2022/04/02 12:51:24;;;;;;;;;;;6.00;99.90;;;;;;5024797;28;19933;-84
2022/04/02 12:53:58;;;;;;;;;;;6.00;99.90;;;;;;5038511;28;20032;-83
2022/04/02 12:56:27;;;;;;;;;;;6.30;99.90;;;;;;5043796;28;19933;-85
2022/04/02 12:58:56;;;;;;;;;;;7.10;99.90;;;;;;5041884;28;19953;-85
2022/04/02 13:01:28;;;;;;;;;;;6.80;99.90;;;;;;5025760;28;19933;-85
2022/04/02 13:04:06;;;;;;;;;;;6.80;99.90;;;;;;5035312;28;19933;-86
2022/04/02 13:06:34;;;;;;;;;;;7.00;99.90;;;;;;5030430;28;19929;-84
2022/04/02 13:09:04;;;;;;;;;;;7.10;99.90;;;;;;5037549;28;19932;-85
2022/04/02 13:11:40;;;;;;;;;;;7.00;99.90;;;;;;5051736;28;19925;-85
2022/04/02 13:14:18;;;;;;;;;;;6.90;99.90;;;;;;5042406;28;19971;-84
2022/04/02 13:16:45;;;;;;;;;;;6.50;99.90;;;;;;5060590;28;19925;-86
2022/04/02 13:22:04;;;;;;;;;;;7.00;99.90;;;;;;5037489;28;19936;-85
2022/04/02 13:24:32;;;;;;;;;;;7.20;99.90;;;;;;5044664;28;19960;-83
2022/04/02 13:27:09;;;;;;;;;;;7.40;99.90;;;;;;5040707;28;19925;-84
2022/04/02 13:29:44;;;;;;;;;;;7.50;99.90;;;;;;5053870;28;19951;-84
2022/04/02 13:35:37;;;;;;;;;;;7.90;99.90;;;;;;5055802;28;20163;-88
2022/04/02 13:38:24;;;;;;;;;;;7.90;99.90;;;;;;5049143;28;19984;-88
2022/04/02 13:40:52;;;;;;;;;;;8.20;99.90;;;;;;5041985;28;19979;-86
2022/04/02 13:43:26;;;;;;;;;;;8.20;99.90;;;;;;5038440;28;19951;-86
2022/04/02 13:45:56;;;;;;;;;;;8.10;99.90;;;;;;5047268;28;19929;-88
2022/04/02 13:48:26;;;;;;;;;;;7.90;99.90;;;;;;5044910;28;19932;-86
2022/04/02 13:51:04;;;;;;;;;;;7.80;99.90;;;;;;5027906;28;19956;-87
2022/04/02 13:53:36;;;;;;;;;;;7.90;99.90;;;;;;5043084;28;19944;-86
2022/04/02 13:56:10;;;;;;;;;;;8.30;99.90;;;;;;5049033;28;19925;-86
2022/04/02 13:58:40;;;;;;;;;;;8.30;99.90;;;;;;5035917;28;19929;-85
2022/04/02 14:01:08;;;;;;;;;;;8.30;99.90;;;;;;5055778;28;19971;-85
2022/04/02 14:03:35;;;;;;;;;;;8.30;99.90;;;;;;5041149;28;19969;-84
2022/04/02 14:06:07;;;;;;;;;;;8.20;99.90;;;;;;5039640;28;19925;-86
2022/04/02 14:08:34;;;;;;;;;;;8.20;99.90;;;;;;5036010;28;19929;-84
2022/04/02 14:11:05;;;;;;;;;;;8.30;99.90;;;;;;5037367;28;19929;-84
2022/04/02 14:13:36;;;;;;;;;;;8.50;99.90;;;;;;5036820;28;20500;-83
2022/04/02 14:16:03;;;;;;;;;;;8.70;99.90;;;;;;5027192;28;20036;-84
2022/04/02 14:18:37;;;;;;;;;;;8.80;99.90;;;;;;5033675;28;20584;-85
2022/04/02 14:21:06;;;;;;;;;;;9.50;99.90;;;;;;5036601;28;19941;-85
2022/04/02 14:23:35;;;;;;;;;;;9.50;99.90;;;;;;5033090;28;19969;-87
2022/04/02 14:26:20;;;;;;;;;;;10.10;99.90;;;;;;5034118;28;19929;-85
2022/04/02 14:28:55;;;;;;;;;;;10.10;99.90;;;;;;5033133;28;19933;-86
2022/04/02 14:31:41;;;;;;;;;;;10.00;99.90;;;;;;5024420;28;19948;-85
2022/04/02 14:34:27;;;;;;;;;;;10.00;99.90;;;;;;5021612;28;19929;-86
2022/04/02 14:40:33;;;;;;;;;;;9.30;99.90;;;;;;4997397;28;20072;-86
2022/04/02 14:43:15;;;;;;;;;;;9.60;99.90;;;;;;5036868;28;19929;-86
2022/04/02 14:46:04;;;;;;;;;;;9.60;99.90;;;;;;5038979;28;19925;-87
2022/04/02 14:48:48;;;;;;;;;;;9.90;99.90;;;;;;5014308;28;19929;-84
2022/04/02 14:51:35;;;;;;;;;;;10.10;99.90;;;;;;5026514;28;19925;-86
2022/04/02 14:54:24;;;;;;;;;;;10.20;99.90;;;;;;5047408;28;20000;-86
2022/04/02 14:57:10;;;;;;;;;;;10.20;99.90;;;;;;5031761;28;19937;-86
2022/04/02 15:00:01;;;;;;;;;;;9.90;99.90;;;;;;5045242;28;19939;-87
2022/04/02 15:02:47;;;;;;;;;;;9.50;99.90;;;;;;5040218;28;19960;-86
2022/04/02 15:05:36;;;;;;;;;;;9.50;99.90;;;;;;5051281;28;19924;-86
2022/04/02 15:08:32;;;;;;;;;;;9.50;99.90;;;;;;5047820;28;19929;-88